createdAt,value
2023-05-04T00:00:38.959Z,99.99
2023-05-04T00:01:38.972Z,99.99
2023-05-04T00:02:39.060Z,99.99
2023-05-04T00:03:39.149Z,99.99
2023-05-04T00:04:39.035Z,99.99
2023-05-04T00:05:39.021Z,99.99
2023-05-04T00:06:39.030Z,99.99
2023-05-04T00:07:39.066Z,99.99
2023-05-04T00:08:39.065Z,99.99
2023-05-04T00:09:39.069Z,99.99
2023-05-04T00:10:39.087Z,99.99
2023-05-04T00:11:39.093Z,99.99
2023-05-04T00:12:39.135Z,99.99
2023-05-04T00:13:39.137Z,99.99
2023-05-04T00:14:39.139Z,99.99
2023-05-04T00:15:39.142Z,99.99
2023-05-04T00:16:39.755Z,99.99
2023-05-04T00:17:39.209Z,99.99
2023-05-04T00:18:39.181Z,99.99
2023-05-04T00:19:39.193Z,99.99
2023-05-04T00:20:39.218Z,99.99
2023-05-04T00:21:39.237Z,99.99
2023-05-04T00:22:39.226Z,99.99
2023-05-04T00:23:39.245Z,99.99
2023-05-04T00:24:39.250Z,99.99
2023-05-04T00:25:39.260Z,99.99
2023-05-04T00:26:39.276Z,99.99
2023-05-04T00:27:39.287Z,99.99
2023-05-04T00:28:39.298Z,99.99
2023-05-04T00:29:39.312Z,99.99
2023-05-04T00:30:39.322Z,99.99
2023-05-04T00:31:39.371Z,99.99
2023-05-04T00:32:39.359Z,99.99
2023-05-04T00:33:39.361Z,99.99
2023-05-04T00:34:39.374Z,99.99
2023-05-04T00:35:39.386Z,99.99
2023-05-04T00:36:39.400Z,99.99
2023-05-04T00:37:39.418Z,99.99
2023-05-04T00:38:39.422Z,99.99
2023-05-04T00:39:39.433Z,99.99
2023-05-04T00:40:39.445Z,99.99
2023-05-04T00:41:39.464Z,99.99
2023-05-04T00:42:39.475Z,99.99
2023-05-04T00:43:39.483Z,99.99
2023-05-04T00:44:39.501Z,99.99
2023-05-04T00:45:39.505Z,99.99
2023-05-04T00:46:39.590Z,99.99
2023-05-04T00:47:39.540Z,99.99
2023-05-04T00:48:39.561Z,99.99
2023-05-04T00:49:39.554Z,99.99
2023-05-04T00:50:39.565Z,99.99
2023-05-04T00:51:39.582Z,99.99
2023-05-04T00:52:39.598Z,99.99
2023-05-04T00:53:39.609Z,99.99
2023-05-04T00:54:39.615Z,99.99
2023-05-04T00:55:39.633Z,99.99
2023-05-04T00:56:39.640Z,99.99
2023-05-04T00:57:39.650Z,99.99
2023-05-04T00:58:39.663Z,99.99
2023-05-04T00:59:39.683Z,99.99
2023-05-04T01:00:39.722Z,99.99
2023-05-04T01:01:39.703Z,99.99
2023-05-04T01:02:39.756Z,99.99
2023-05-04T01:03:39.778Z,99.99
2023-05-04T01:04:39.737Z,99.99
2023-05-04T01:05:39.746Z,99.99
2023-05-04T01:06:39.761Z,99.99
2023-05-04T01:07:39.775Z,99.99
2023-05-04T01:08:39.787Z,99.99
2023-05-04T01:09:39.805Z,99.99
2023-05-04T01:10:39.808Z,99.99
2023-05-04T01:11:39.821Z,99.99
2023-05-04T01:12:39.859Z,99.99
2023-05-04T01:13:39.846Z,99.99
2023-05-04T01:14:39.861Z,99.99
2023-05-04T01:15:39.884Z,99.99
2023-05-04T01:16:39.919Z,99.99
2023-05-04T01:17:39.950Z,99.99
2023-05-04T01:18:39.908Z,99.99
2023-05-04T01:19:39.918Z,99.99
2023-05-04T01:20:39.933Z,99.99
2023-05-04T01:21:39.943Z,99.99
2023-05-04T01:22:39.986Z,99.99
2023-05-04T01:23:39.980Z,99.99
2023-05-04T01:24:40.015Z,99.99
2023-05-04T01:25:39.995Z,99.99
2023-05-04T01:26:40.003Z,99.99
2023-05-04T01:27:40.017Z,99.99
2023-05-04T01:28:40.053Z,99.99
2023-05-04T01:29:40.058Z,99.99
2023-05-04T01:30:40.105Z,99.99
2023-05-04T01:31:40.094Z,99.99
2023-05-04T01:32:40.098Z,99.99
2023-05-04T01:33:40.105Z,99.99
2023-05-04T01:34:40.098Z,99.99
2023-05-04T01:35:40.127Z,99.99
2023-05-04T01:36:40.135Z,99.99
2023-05-04T01:37:40.141Z,99.99
2023-05-04T01:38:40.151Z,99.99
2023-05-04T01:39:40.158Z,99.99
2023-05-04T01:40:40.175Z,99.99
2023-05-04T01:41:40.181Z,99.99
2023-05-04T01:42:40.193Z,99.99
2023-05-04T01:43:40.201Z,99.99
2023-05-04T01:44:40.214Z,99.99
2023-05-04T01:45:40.231Z,99.99
2023-05-04T01:46:40.290Z,99.99
2023-05-04T01:47:40.270Z,99.99
2023-05-04T01:48:40.260Z,99.99
2023-05-04T01:49:40.271Z,99.99
2023-05-04T01:50:40.283Z,99.99
2023-05-04T01:51:40.296Z,99.99
2023-05-04T01:52:40.308Z,99.99
2023-05-04T01:53:40.320Z,99.99
2023-05-04T01:54:40.333Z,99.99
2023-05-04T01:55:40.346Z,99.99
2023-05-04T01:56:40.354Z,99.99
2023-05-04T01:57:40.421Z,99.99
2023-05-04T01:58:40.378Z,99.99
2023-05-04T01:59:40.389Z,99.99
2023-05-04T02:00:40.401Z,99.99
2023-05-04T02:01:40.437Z,99.99
2023-05-04T02:02:40.467Z,99.99
2023-05-04T02:03:40.534Z,99.99
2023-05-04T02:04:40.447Z,99.99
2023-05-04T02:05:40.460Z,99.99
2023-05-04T02:06:40.502Z,99.99
2023-05-04T02:07:40.485Z,99.99
2023-05-04T02:08:40.497Z,99.99
2023-05-04T02:09:40.515Z,99.99
2023-05-04T02:10:40.524Z,99.99
2023-05-04T02:11:40.533Z,99.99
2023-05-04T02:12:40.608Z,99.99
2023-05-04T02:13:40.560Z,99.99
2023-05-04T02:14:40.567Z,99.99
2023-05-04T02:15:40.621Z,99.99
2023-05-04T02:16:40.644Z,99.99
2023-05-04T02:17:40.638Z,99.99
2023-05-04T02:18:40.629Z,99.99
2023-05-04T02:19:40.634Z,99.99
2023-05-04T02:20:40.635Z,99.99
2023-05-04T02:21:40.656Z,99.99
2023-05-04T02:22:40.666Z,99.99
2023-05-04T02:23:40.675Z,99.99
2023-05-04T02:24:40.681Z,99.99
2023-05-04T02:25:40.702Z,99.99
2023-05-04T02:26:40.721Z,99.99
2023-05-04T02:27:40.721Z,99.99
2023-05-04T02:28:40.743Z,99.99
2023-05-04T02:29:40.745Z,99.99
2023-05-04T02:30:40.756Z,99.99
2023-05-04T02:31:40.793Z,99.99
2023-05-04T02:32:40.806Z,99.99
2023-05-04T02:33:40.789Z,99.99
2023-05-04T02:34:40.802Z,99.99
2023-05-04T02:35:40.836Z,99.99
2023-05-04T02:36:40.827Z,99.99
2023-05-04T02:37:40.839Z,99.99
2023-05-04T02:38:40.851Z,99.99
2023-05-04T02:39:40.861Z,99.99
2023-05-04T02:40:40.872Z,99.99
2023-05-04T02:41:40.895Z,99.99
2023-05-04T02:42:40.904Z,99.99
2023-05-04T02:43:40.907Z,99.99
2023-05-04T02:44:40.919Z,99.99
2023-05-04T02:45:40.957Z,99.99
2023-05-04T02:46:40.944Z,99.99
2023-05-04T02:47:40.981Z,99.99
2023-05-04T02:48:40.966Z,99.99
2023-05-04T02:49:40.979Z,99.99
2023-05-04T02:50:40.992Z,99.99
2023-05-04T02:51:41.007Z,99.99
2023-05-04T02:52:41.021Z,99.99
2023-05-04T02:53:41.046Z,99.99
2023-05-04T02:54:41.039Z,99.99
2023-05-04T02:55:41.058Z,99.99
2023-05-04T02:56:41.066Z,99.99
2023-05-04T02:57:41.072Z,99.99
2023-05-04T02:58:41.090Z,99.99
2023-05-04T02:59:41.093Z,99.99
2023-05-04T03:00:41.109Z,99.99
2023-05-04T03:01:41.162Z,99.99
2023-05-04T03:02:41.177Z,99.99
2023-05-04T03:03:41.144Z,99.99
2023-05-04T03:04:41.275Z,99.99
2023-05-04T03:05:41.173Z,99.99
2023-05-04T03:06:41.177Z,99.99
2023-05-04T03:07:41.192Z,99.99
2023-05-04T03:08:41.217Z,99.99
2023-05-04T03:09:41.218Z,99.99
2023-05-04T03:10:41.236Z,99.99
2023-05-04T03:11:41.236Z,99.99
2023-05-04T03:12:41.273Z,99.99
2023-05-04T03:13:41.260Z,99.99
2023-05-04T03:14:41.277Z,99.99
2023-05-04T03:15:41.283Z,99.99
2023-05-04T03:16:41.324Z,99.99
2023-05-04T03:17:41.353Z,99.99
2023-05-04T03:18:41.319Z,99.99
2023-05-04T03:19:41.330Z,99.99
2023-05-04T03:20:41.345Z,99.99
2023-05-04T03:21:41.350Z,99.99
2023-05-04T03:22:41.364Z,99.99
2023-05-04T03:23:41.373Z,99.99
2023-05-04T03:24:41.385Z,99.99
2023-05-04T03:25:41.401Z,99.99
2023-05-04T03:26:41.406Z,99.99
2023-05-04T03:27:41.418Z,99.99
2023-05-04T03:28:41.431Z,99.99
2023-05-04T03:29:41.442Z,99.99
2023-05-04T03:30:41.456Z,99.99
2023-05-04T03:31:41.515Z,99.99
2023-05-04T03:32:41.485Z,99.99
2023-05-04T03:33:41.489Z,99.99
2023-05-04T03:34:41.508Z,99.99
2023-05-04T03:35:41.517Z,99.99
2023-05-04T03:36:41.546Z,99.99
2023-05-04T03:37:41.533Z,99.99
2023-05-04T03:38:41.555Z,99.99
2023-05-04T03:39:41.564Z,99.99
2023-05-04T03:40:41.567Z,99.99
2023-05-04T03:41:41.585Z,99.99
2023-05-04T03:42:41.590Z,99.99
2023-05-04T03:43:41.607Z,99.99
2023-05-04T03:44:41.613Z,99.99
2023-05-04T03:45:41.636Z,99.99
2023-05-04T03:46:41.635Z,99.99
2023-05-04T03:47:41.713Z,99.99
2023-05-04T03:48:41.663Z,99.99
2023-05-04T03:49:41.667Z,99.99
2023-05-04T03:50:41.687Z,99.99
2023-05-04T03:51:41.695Z,99.99
2023-05-04T03:52:41.705Z,99.99
2023-05-04T03:53:44.052Z,99.99
2023-05-04T03:54:41.726Z,99.99
2023-05-04T03:55:41.743Z,99.99
2023-05-04T03:56:41.750Z,99.99
2023-05-04T03:57:41.760Z,99.99
2023-05-04T03:58:41.771Z,99.99
2023-05-04T03:59:41.784Z,99.99
2023-05-04T04:00:41.807Z,99.99
2023-05-04T04:01:41.807Z,99.99
2023-05-04T04:02:42.040Z,99.99
2023-05-04T04:03:41.910Z,99.99
2023-05-04T04:04:41.915Z,99.99
2023-05-04T04:05:41.854Z,99.99
2023-05-04T04:06:43.440Z,99.99
2023-05-04T04:07:41.881Z,99.99
2023-05-04T04:08:41.889Z,99.99
2023-05-04T04:09:41.900Z,99.99
2023-05-04T04:10:41.922Z,99.99
2023-05-04T04:11:41.926Z,99.99
2023-05-04T04:12:41.970Z,99.99
2023-05-04T04:13:41.965Z,99.99
2023-05-04T04:14:41.972Z,99.99
2023-05-04T04:15:42.816Z,99.99
2023-05-04T04:16:42.060Z,99.99
2023-05-04T04:17:42.010Z,99.99
2023-05-04T04:18:42.019Z,99.99
2023-05-04T04:19:42.029Z,99.99
2023-05-04T04:20:42.037Z,99.99
2023-05-04T04:21:42.039Z,99.99
2023-05-04T04:22:42.053Z,99.99
2023-05-04T04:23:42.063Z,99.99
2023-05-04T04:24:42.072Z,99.99
2023-05-04T04:25:43.039Z,99.99
2023-05-04T04:26:42.124Z,99.99
2023-05-04T04:27:42.114Z,99.99
2023-05-04T04:28:42.119Z,99.99
2023-05-04T04:29:42.133Z,99.99
2023-05-04T04:30:42.154Z,99.99
2023-05-04T04:31:42.208Z,99.99
2023-05-04T04:32:42.211Z,99.99
2023-05-04T04:33:42.176Z,99.99
2023-05-04T04:34:42.187Z,99.99
2023-05-04T04:35:42.198Z,99.99
2023-05-04T04:36:42.209Z,99.99
2023-05-04T04:37:42.238Z,99.99
2023-05-04T04:38:42.232Z,99.99
2023-05-04T04:39:42.332Z,99.99
2023-05-04T04:40:42.255Z,99.99
2023-05-04T04:41:42.283Z,99.99
2023-05-04T04:42:42.291Z,99.99
2023-05-04T04:43:42.291Z,99.99
2023-05-04T04:44:42.303Z,99.99
2023-05-04T04:45:42.313Z,99.99
2023-05-04T04:46:42.367Z,99.99
2023-05-04T04:47:42.367Z,99.99
2023-05-04T04:48:42.348Z,99.99
2023-05-04T04:49:42.365Z,99.99
2023-05-04T04:50:42.382Z,99.99
2023-05-04T04:51:42.385Z,99.99
2023-05-04T04:52:42.399Z,99.99
2023-05-04T04:53:42.407Z,99.99
2023-05-04T04:54:42.419Z,99.99
2023-05-04T04:55:42.438Z,99.99
2023-05-04T04:56:42.441Z,99.99
2023-05-04T04:57:42.455Z,99.99
2023-05-04T04:58:42.468Z,99.99
2023-05-04T04:59:42.484Z,99.99
2023-05-04T05:00:42.503Z,99.99
2023-05-04T05:01:42.505Z,99.99
2023-05-04T05:02:42.590Z,99.99
2023-05-04T05:03:42.525Z,99.99
2023-05-04T05:04:42.649Z,99.99
2023-05-04T05:05:42.551Z,99.99
2023-05-04T05:06:42.569Z,99.99
2023-05-04T05:07:42.579Z,99.99
2023-05-04T05:08:42.621Z,99.99
2023-05-04T05:09:42.599Z,99.99
2023-05-04T05:10:43.956Z,99.99
2023-05-04T05:11:42.631Z,99.99
2023-05-04T05:12:42.714Z,99.99
2023-05-04T05:13:42.650Z,99.99
2023-05-04T05:14:42.673Z,99.99
2023-05-04T05:15:42.677Z,99.99
2023-05-04T05:16:42.810Z,99.99
2023-05-04T05:17:42.737Z,99.99
2023-05-04T05:18:42.713Z,99.99
2023-05-04T05:19:42.721Z,99.99
2023-05-04T05:20:42.736Z,99.99
2023-05-04T05:21:42.748Z,99.99
2023-05-04T05:22:42.808Z,99.99
2023-05-04T05:23:42.774Z,99.99
2023-05-04T05:24:42.782Z,99.99
2023-05-04T05:25:42.798Z,99.99
2023-05-04T05:26:42.811Z,99.99
2023-05-04T05:27:42.817Z,99.99
2023-05-04T05:28:42.838Z,99.99
2023-05-04T05:29:42.844Z,99.99
2023-05-04T05:30:42.900Z,99.99
2023-05-04T05:31:42.872Z,99.99
2023-05-04T05:32:42.935Z,99.99
2023-05-04T05:33:42.897Z,99.99
2023-05-04T05:34:42.942Z,99.99
2023-05-04T05:35:42.922Z,99.99
2023-05-04T05:36:42.932Z,99.99
2023-05-04T05:37:42.944Z,99.99
2023-05-04T05:38:42.966Z,99.99
2023-05-04T05:39:42.978Z,99.99
2023-05-04T05:40:42.980Z,99.99
2023-05-04T05:41:42.996Z,99.99
2023-05-04T05:42:43.009Z,99.99
2023-05-04T05:43:43.026Z,99.99
2023-05-04T05:44:43.034Z,99.99
2023-05-04T05:45:43.055Z,99.99
2023-05-04T05:46:43.155Z,99.99
2023-05-04T05:47:43.112Z,99.99
2023-05-04T05:48:43.088Z,99.99
2023-05-04T05:49:45.436Z,99.99
2023-05-04T05:50:43.150Z,99.99
2023-05-04T05:51:43.135Z,99.99
2023-05-04T05:52:43.141Z,99.99
2023-05-04T05:53:43.162Z,99.99
2023-05-04T05:54:43.168Z,99.99
2023-05-04T05:55:43.250Z,99.99
2023-05-04T05:56:43.206Z,99.99
2023-05-04T05:57:43.230Z,99.99
2023-05-04T05:58:43.222Z,99.99
2023-05-04T05:59:43.246Z,99.99
2023-05-04T06:00:43.258Z,99.99
2023-05-04T06:01:43.268Z,99.99
2023-05-04T06:02:43.387Z,99.99
2023-05-04T06:03:43.531Z,99.99
2023-05-04T06:04:43.351Z,99.99
2023-05-04T06:05:43.320Z,99.99
2023-05-04T06:06:45.137Z,99.99
2023-05-04T06:07:43.346Z,99.99
2023-05-04T06:08:43.357Z,99.99
2023-05-04T06:09:43.380Z,99.99
2023-05-04T06:10:43.413Z,99.99
2023-05-04T06:11:43.402Z,99.99
2023-05-04T06:12:43.433Z,99.99
2023-05-04T06:13:43.433Z,99.99
2023-05-04T06:14:43.442Z,99.99
2023-05-04T06:15:43.458Z,99.99
2023-05-04T06:16:44.014Z,99.99
2023-05-04T06:17:43.526Z,99.99
2023-05-04T06:18:43.498Z,99.99
2023-05-04T06:19:43.513Z,99.99
2023-05-04T06:20:43.529Z,99.99
2023-05-04T06:21:43.545Z,99.99
2023-05-04T06:22:43.563Z,99.99
2023-05-04T06:23:43.590Z,99.99
2023-05-04T06:24:43.586Z,99.99
2023-05-04T06:25:43.617Z,99.99
2023-05-04T06:26:43.618Z,99.99
2023-05-04T06:27:43.725Z,99.99
2023-05-04T06:28:43.647Z,99.99
2023-05-04T06:29:43.668Z,99.99
2023-05-04T06:30:43.680Z,99.99
2023-05-04T06:31:43.979Z,99.99
2023-05-04T06:32:43.724Z,99.99
2023-05-04T06:33:43.740Z,99.99
2023-05-04T06:34:43.746Z,99.99
2023-05-04T06:35:43.767Z,99.99
2023-05-04T06:36:43.782Z,99.99
2023-05-04T06:37:43.810Z,99.99
2023-05-04T06:38:43.831Z,99.99
2023-05-04T06:39:43.859Z,99.99
2023-05-04T06:40:43.900Z,99.99
2023-05-04T06:41:43.875Z,99.76
2023-05-04T06:42:43.908Z,97.99
2023-05-04T06:43:43.927Z,96.08
2023-05-04T06:44:43.956Z,94.50
2023-05-04T06:45:43.987Z,94.41
2023-05-04T06:46:43.976Z,93.16
2023-05-04T06:47:44.021Z,92.63
2023-05-04T06:48:44.017Z,92.35
2023-05-04T06:49:44.036Z,91.05
2023-05-04T06:50:44.059Z,89.90
2023-05-04T06:51:44.081Z,88.61
2023-05-04T06:52:44.098Z,88.42
2023-05-04T06:53:44.118Z,87.46
2023-05-04T06:54:44.143Z,87.12
2023-05-04T06:55:44.169Z,85.78
2023-05-04T06:56:44.182Z,85.05
2023-05-04T06:57:44.204Z,83.52
2023-05-04T06:58:44.233Z,83.33
2023-05-04T06:59:44.247Z,83.04
2023-05-04T07:00:44.305Z,80.68
2023-05-04T07:01:44.306Z,79.53
2023-05-04T07:02:44.383Z,79.72
2023-05-04T07:03:44.366Z,79.96
2023-05-04T07:04:44.358Z,79.96
2023-05-04T07:05:44.379Z,79.96
2023-05-04T07:06:44.404Z,79.52
2023-05-04T07:07:44.426Z,77.21
2023-05-04T07:08:44.449Z,76.64
2023-05-04T07:09:44.469Z,77.01
2023-05-04T07:10:44.492Z,76.39
2023-05-04T07:11:44.518Z,76.00
2023-05-04T07:12:44.546Z,76.48
2023-05-04T07:13:44.567Z,75.32
2023-05-04T07:14:44.588Z,74.17
2023-05-04T07:15:44.608Z,73.35
2023-05-04T07:16:44.822Z,73.06
2023-05-04T07:17:44.688Z,72.77
2023-05-04T07:18:44.674Z,73.44
2023-05-04T07:19:44.710Z,73.47
2023-05-04T07:20:44.737Z,73.28
2023-05-04T07:21:44.765Z,72.17
2023-05-04T07:22:44.778Z,72.65
2023-05-04T07:23:44.799Z,72.17
2023-05-04T07:24:44.821Z,70.62
2023-05-04T07:25:44.848Z,69.67
2023-05-04T07:26:44.867Z,70.09
2023-05-04T07:27:44.899Z,69.67
2023-05-04T07:28:44.915Z,68.84
2023-05-04T07:29:44.948Z,68.26
2023-05-04T07:30:44.965Z,68.26
2023-05-04T07:31:45.055Z,68.44
2023-05-04T07:32:45.042Z,67.39
2023-05-04T07:33:45.050Z,67.10
2023-05-04T07:34:46.456Z,67.52
2023-05-04T07:35:45.094Z,67.81
2023-05-04T07:36:45.112Z,66.94
2023-05-04T07:37:45.141Z,66.65
2023-05-04T07:38:45.348Z,66.07
2023-05-04T07:39:45.196Z,65.11
2023-05-04T07:40:45.216Z,65.11
2023-05-04T07:41:45.931Z,64.53
2023-05-04T07:42:45.263Z,65.53
2023-05-04T07:43:45.288Z,65.91
2023-05-04T07:44:45.309Z,66.20
2023-05-04T07:45:45.382Z,65.53
2023-05-04T07:46:45.370Z,65.14
2023-05-04T07:47:45.427Z,65.14
2023-05-04T07:48:45.415Z,64.18
2023-05-04T07:49:45.441Z,65.37
2023-05-04T07:50:45.480Z,64.98
2023-05-04T07:51:45.494Z,63.92
2023-05-04T07:52:45.554Z,63.82
2023-05-04T07:53:45.549Z,61.96
2023-05-04T07:54:45.576Z,60.80
2023-05-04T07:55:45.596Z,60.80
2023-05-04T07:56:45.622Z,62.06
2023-05-04T07:57:45.647Z,62.35
2023-05-04T07:58:45.679Z,63.02
2023-05-04T07:59:45.712Z,61.68
2023-05-04T08:00:45.735Z,62.63
2023-05-04T08:01:45.785Z,61.48
2023-05-04T08:02:45.872Z,61.48
2023-05-04T08:03:45.817Z,61.77
2023-05-04T08:04:45.835Z,61.93
2023-05-04T08:05:45.872Z,61.58
2023-05-04T08:06:45.887Z,61.96
2023-05-04T08:07:45.914Z,62.06
2023-05-04T08:08:45.938Z,62.25
2023-05-04T08:09:45.972Z,62.73
2023-05-04T08:10:45.990Z,62.54
2023-05-04T08:11:47.090Z,62.83
2023-05-04T08:12:46.056Z,62.83
2023-05-04T08:13:46.069Z,62.06
2023-05-04T08:14:46.099Z,61.25
2023-05-04T08:15:46.124Z,61.16
2023-05-04T08:16:46.166Z,61.45
2023-05-04T08:17:46.219Z,62.51
2023-05-04T08:18:46.213Z,62.29
2023-05-04T08:19:46.225Z,63.06
2023-05-04T08:20:46.249Z,62.67
2023-05-04T08:21:46.277Z,63.02
2023-05-04T08:22:46.296Z,62.64
2023-05-04T08:23:46.334Z,62.45
2023-05-04T08:24:46.355Z,62.71
2023-05-04T08:25:46.370Z,62.99
2023-05-04T08:26:52.614Z,63.28
2023-05-04T08:27:46.730Z,64.40
2023-05-04T08:28:46.457Z,64.89
2023-05-04T08:29:46.475Z,65.17
2023-05-04T08:30:46.495Z,64.89
2023-05-04T08:31:46.615Z,64.89
2023-05-04T08:32:46.577Z,65.08
2023-05-04T08:33:46.560Z,64.76
2023-05-04T08:34:46.587Z,63.99
2023-05-04T08:35:46.611Z,63.79
2023-05-04T08:36:46.630Z,64.09
2023-05-04T08:37:46.653Z,64.82
2023-05-04T08:38:46.678Z,64.92
2023-05-04T08:39:46.704Z,65.01
2023-05-04T08:40:48.123Z,63.86
2023-05-04T08:41:46.741Z,64.53
2023-05-04T08:42:46.764Z,64.40
2023-05-04T08:43:46.799Z,65.08
2023-05-04T08:44:46.812Z,64.89
2023-05-04T08:45:46.852Z,65.56
2023-05-04T08:46:46.858Z,65.94
2023-05-04T08:47:46.905Z,65.84
2023-05-04T08:48:46.896Z,66.13
2023-05-04T08:49:46.915Z,65.84
2023-05-04T08:50:46.939Z,66.58
2023-05-04T08:51:46.961Z,67.35
2023-05-04T08:52:46.982Z,67.16
2023-05-04T08:53:47.003Z,66.39
2023-05-04T08:54:47.025Z,66.58
2023-05-04T08:55:47.047Z,66.58
2023-05-04T08:56:47.069Z,67.06
2023-05-04T08:57:47.360Z,67.16
2023-05-04T08:58:47.118Z,66.49
2023-05-04T08:59:47.127Z,67.06
2023-05-04T09:00:47.188Z,67.16
2023-05-04T09:01:47.254Z,66.10
2023-05-04T09:02:47.264Z,66.10
2023-05-04T09:03:47.283Z,65.91
2023-05-04T09:04:47.231Z,65.49
2023-05-04T09:05:47.257Z,65.14
2023-05-04T09:06:47.278Z,65.52
2023-05-04T09:07:47.299Z,66.00
2023-05-04T09:08:47.317Z,65.91
2023-05-04T09:09:47.341Z,66.10
2023-05-04T09:10:47.379Z,66.10
2023-05-04T09:11:47.386Z,66.29
2023-05-04T09:12:47.400Z,67.25
2023-05-04T09:13:47.420Z,66.96
2023-05-04T09:14:47.455Z,66.96
2023-05-04T09:15:47.576Z,66.39
2023-05-04T09:16:47.508Z,65.91
2023-05-04T09:17:57.088Z,65.52
2023-05-04T09:18:47.522Z,66.10
2023-05-04T09:19:47.549Z,65.72
2023-05-04T09:20:47.628Z,66.49
2023-05-04T09:21:47.590Z,66.42
2023-05-04T09:22:47.614Z,65.94
2023-05-04T09:23:47.721Z,66.42
2023-05-04T09:24:47.653Z,66.71
2023-05-04T09:25:47.675Z,66.71
2023-05-04T09:26:47.694Z,67.57
2023-05-04T09:27:47.720Z,67.47
2023-05-04T09:28:47.763Z,67.57
2023-05-04T09:29:47.765Z,67.29
2023-05-04T09:30:47.808Z,67.29
2023-05-04T09:31:47.813Z,66.52
2023-05-04T09:32:47.861Z,66.26
2023-05-04T09:33:47.854Z,65.49
2023-05-04T09:34:47.868Z,64.69
2023-05-04T09:35:47.889Z,63.06
2023-05-04T09:36:47.912Z,63.06
2023-05-04T09:37:47.945Z,63.45
2023-05-04T09:38:47.953Z,63.92
2023-05-04T09:39:47.978Z,64.89
2023-05-04T09:40:48.001Z,65.49
2023-05-04T09:41:48.020Z,66.16
2023-05-04T09:42:48.043Z,65.97
2023-05-04T09:43:48.080Z,65.97
2023-05-04T09:44:48.081Z,65.59
2023-05-04T09:45:48.106Z,65.59
2023-05-04T09:46:48.185Z,66.07
2023-05-04T09:47:48.221Z,66.30
2023-05-04T09:48:48.186Z,66.10
2023-05-04T09:49:48.196Z,65.81
2023-05-04T09:50:48.242Z,65.53
2023-05-04T09:51:48.237Z,65.62
2023-05-04T09:52:48.271Z,65.33
2023-05-04T09:53:48.282Z,64.56
2023-05-04T09:54:48.319Z,65.05
2023-05-04T09:55:48.332Z,64.79
2023-05-04T09:56:48.359Z,64.79
2023-05-04T09:57:48.373Z,64.98
2023-05-04T09:58:48.404Z,64.22
2023-05-04T09:59:48.425Z,63.95
2023-05-04T10:00:48.456Z,63.18
2023-05-04T10:01:48.539Z,62.51
2023-05-04T10:02:48.604Z,62.41
2023-05-04T10:03:48.542Z,62.64
2023-05-04T10:04:48.546Z,62.45
2023-05-04T10:05:48.611Z,62.45
2023-05-04T10:06:48.599Z,61.58
2023-05-04T10:07:48.621Z,62.00
2023-05-04T10:08:48.646Z,62.57
2023-05-04T10:09:48.712Z,60.75
2023-05-04T10:10:48.694Z,60.65
2023-05-04T10:11:48.722Z,60.75
2023-05-04T10:12:48.775Z,60.97
2023-05-04T10:13:48.769Z,61.16
2023-05-04T10:14:48.798Z,60.58
2023-05-04T10:15:48.887Z,59.62
2023-05-04T10:16:48.910Z,58.97
2023-05-04T10:17:48.909Z,58.59
2023-05-04T10:18:48.901Z,58.01
2023-05-04T10:19:48.930Z,57.46
2023-05-04T10:20:48.957Z,57.37
2023-05-04T10:21:48.982Z,57.65
2023-05-04T10:22:49.017Z,58.36
2023-05-04T10:23:49.036Z,57.59
2023-05-04T10:24:49.069Z,57.42
2023-05-04T10:25:49.097Z,58.00
2023-05-04T10:26:49.126Z,57.52
2023-05-04T10:27:49.159Z,57.16
2023-05-04T10:28:49.179Z,56.77
2023-05-04T10:29:49.209Z,56.71
2023-05-04T10:30:49.238Z,55.83
2023-05-04T10:31:49.306Z,55.96
2023-05-04T10:32:49.307Z,55.96
2023-05-04T10:33:49.334Z,55.87
2023-05-04T10:34:49.365Z,55.19
2023-05-04T10:35:49.382Z,55.02
2023-05-04T10:36:49.411Z,54.53
2023-05-04T10:37:49.445Z,54.05
2023-05-04T10:38:49.477Z,53.59
2023-05-04T10:39:49.501Z,52.82
2023-05-04T10:40:49.532Z,53.11
2023-05-04T10:41:49.563Z,53.79
2023-05-04T10:42:49.596Z,53.02
2023-05-04T10:43:49.619Z,52.75
2023-05-04T10:44:49.667Z,52.17
2023-05-04T10:45:49.746Z,51.86
2023-05-04T10:46:49.729Z,51.86
2023-05-04T10:47:49.772Z,53.33
2023-05-04T10:48:49.766Z,53.63
2023-05-04T10:49:49.795Z,52.17
2023-05-04T10:50:49.861Z,52.53
2023-05-04T10:51:49.907Z,53.11
2023-05-04T10:52:49.898Z,53.14
2023-05-04T10:53:49.926Z,53.23
2023-05-04T10:54:49.947Z,52.75
2023-05-04T10:55:49.977Z,52.75
2023-05-04T10:56:50.004Z,52.56
2023-05-04T10:57:50.033Z,52.46
2023-05-04T10:58:50.065Z,51.59
2023-05-04T10:59:50.102Z,51.50
2023-05-04T11:00:50.133Z,50.94
2023-05-04T11:01:50.149Z,51.72
2023-05-04T11:02:50.428Z,51.72
2023-05-04T11:03:50.265Z,50.74
2023-05-04T11:04:50.240Z,50.74
2023-05-04T11:05:50.282Z,51.04
2023-05-04T11:06:50.297Z,50.77
2023-05-04T11:07:50.325Z,50.57
2023-05-04T11:08:50.357Z,50.67
2023-05-04T11:09:50.388Z,48.76
2023-05-04T11:10:50.426Z,48.76
2023-05-04T11:11:50.450Z,48.95
2023-05-04T11:12:50.509Z,48.85
2023-05-04T11:13:50.510Z,48.69
2023-05-04T11:14:50.537Z,49.27
2023-05-04T11:15:50.567Z,49.46
2023-05-04T11:16:50.637Z,48.39
2023-05-04T11:17:50.666Z,47.83
2023-05-04T11:18:50.685Z,47.83
2023-05-04T11:19:50.689Z,47.16
2023-05-04T11:20:50.717Z,47.64
2023-05-04T11:21:50.751Z,47.25
2023-05-04T11:22:50.798Z,47.35
2023-05-04T11:23:50.815Z,48.93
2023-05-04T11:24:50.851Z,49.22
2023-05-04T11:25:50.900Z,49.41
2023-05-04T11:26:50.910Z,48.47
2023-05-04T11:27:50.940Z,47.49
2023-05-04T11:28:50.970Z,46.98
2023-05-04T11:29:51.009Z,47.38
2023-05-04T11:30:51.032Z,46.79
2023-05-04T11:31:51.076Z,47.69
2023-05-04T11:32:51.200Z,47.66
2023-05-04T11:33:51.123Z,47.69
2023-05-04T11:34:51.157Z,47.08
2023-05-04T11:35:51.187Z,47.38
2023-05-04T11:36:51.224Z,47.30
2023-05-04T11:37:51.253Z,47.11
2023-05-04T11:38:51.284Z,47.69
2023-05-04T11:39:51.312Z,47.59
2023-05-04T11:40:51.351Z,47.52
2023-05-04T11:41:51.389Z,48.30
2023-05-04T11:42:51.426Z,48.00
2023-05-04T11:43:51.435Z,47.71
2023-05-04T11:44:51.469Z,46.35
2023-05-04T11:45:51.497Z,45.36
2023-05-04T11:46:51.627Z,45.87
2023-05-04T11:47:51.595Z,45.75
2023-05-04T11:48:51.590Z,45.84
2023-05-04T11:49:51.628Z,45.94
2023-05-04T11:50:51.655Z,45.62
2023-05-04T11:51:51.687Z,46.50
2023-05-04T11:52:51.733Z,46.60
2023-05-04T11:53:51.746Z,47.18
2023-05-04T11:54:52.477Z,46.11
2023-05-04T11:55:51.809Z,45.24
2023-05-04T11:56:51.884Z,45.41
2023-05-04T11:57:51.864Z,45.70
2023-05-04T11:58:51.900Z,45.89
2023-05-04T11:59:51.922Z,46.31
2023-05-04T12:00:52.402Z,46.31
2023-05-04T12:01:51.983Z,46.42
2023-05-04T12:02:52.099Z,46.04
2023-05-04T12:03:54.142Z,45.14
2023-05-04T12:04:52.084Z,45.26
2023-05-04T12:05:52.208Z,46.62
2023-05-04T12:06:52.134Z,46.81
2023-05-04T12:07:52.166Z,46.62
2023-05-04T12:08:52.193Z,46.42
2023-05-04T12:09:52.225Z,45.45
2023-05-04T12:10:52.260Z,45.45
2023-05-04T12:11:52.288Z,45.26
2023-05-04T12:12:52.349Z,45.34
2023-05-04T12:13:52.357Z,44.95
2023-05-04T12:14:52.392Z,45.62
2023-05-04T12:15:52.409Z,46.11
2023-05-04T12:16:52.443Z,46.11
2023-05-04T12:17:52.510Z,46.50
2023-05-04T12:18:52.507Z,47.57
2023-05-04T12:19:52.538Z,46.50
2023-05-04T12:20:52.558Z,46.11
2023-05-04T12:21:52.646Z,45.80
2023-05-04T12:22:52.647Z,45.89
2023-05-04T12:23:52.655Z,46.50
2023-05-04T12:24:52.728Z,46.79
2023-05-04T12:25:58.219Z,47.38
2023-05-04T12:26:52.745Z,47.57
2023-05-04T12:27:52.802Z,47.38
2023-05-04T12:28:52.797Z,47.08
2023-05-04T12:29:52.826Z,47.47
2023-05-04T12:30:52.857Z,47.78
2023-05-04T12:31:52.941Z,47.69
2023-05-04T12:32:52.946Z,46.84
2023-05-04T12:33:52.950Z,46.45
2023-05-04T12:34:52.977Z,46.94
2023-05-04T12:35:53.007Z,46.94
2023-05-04T12:36:53.036Z,46.86
2023-05-04T12:37:53.069Z,46.96
2023-05-04T12:38:53.093Z,46.57
2023-05-04T12:39:53.125Z,46.01
2023-05-04T12:40:53.180Z,45.62
2023-05-04T12:41:53.188Z,45.72
2023-05-04T12:42:53.219Z,45.52
2023-05-04T12:43:53.250Z,45.81
2023-05-04T12:44:53.286Z,45.81
2023-05-04T12:45:53.379Z,46.20
2023-05-04T12:46:53.344Z,45.52
2023-05-04T12:47:53.485Z,44.65
2023-05-04T12:48:53.408Z,44.55
2023-05-04T12:49:53.436Z,44.65
2023-05-04T12:50:53.465Z,44.55
2023-05-04T12:51:53.508Z,44.65
2023-05-04T12:52:53.528Z,45.14